Decoded Metar for KCHO (CHARLOTTESVILLE in VA, USA) (IATA:CHO) | Meteo·Mobile Aviation Weather
aviador You're here:

KCHO Decoded Metar

CHARLOTTESVILLE in VA, USA
Report Time2018-11-19 04:53:00
UTC Time2018-11-19 05:14:44
Flight Rules mvfr MVFR
WindCalm
Visibility8047 m
Phenomena:Mist
Clouds:N/A
Expected CloudBase > 800 ft AGL from Temp-Dew spread
CeilingNone
Temp05°C (ISA -9)
Dew Point03°C (87% RH)
AAT3.5°C
QNH1022 hPa
Density Alt-627 ft
Elevation630 ft
Report Wrong Elevation
Raw Report
METAR KCHO 190453Z AUTO 00000KT 5SM BR CLR 05/03 A3018 RMK AO2 SLP219
T00500033 401000006=

Extra information for KCHO:More info

Metar Taf Metar & Taf Last 4 Metars F.Rules Stats Wind Profile Meteogram Temp Stats Airport Information Weather charts Add Link Nearby VenuesMetar ALERT Operation Metar Decoded Social comments

AIRNAV info for KCHO